sensor_id;sensor_type;location;lat;lon;timestamp;pressure;altitude;pressure_sealevel;temperature;humidity
47524;BME280;33253;42.144;25.884;2023-05-01T00:00:09;100394.28;;;12.70;100.00
47524;BME280;33253;42.144;25.884;2023-05-01T00:02:35;100399.22;;;12.61;100.00
47524;BME280;33253;42.144;25.884;2023-05-01T00:05:01;100408.50;;;12.53;100.00
47524;BME280;33253;42.144;25.884;2023-05-01T00:07:27;100403.16;;;12.46;100.00
47524;BME280;33253;42.144;25.884;2023-05-01T00:09:58;100407.59;;;12.52;100.00
47524;BME280;33253;42.144;25.884;2023-05-01T00:12:24;100392.25;;;12.58;100.00
47524;BME280;33253;42.144;25.884;2023-05-01T00:14:50;100395.91;;;12.65;100.00
47524;BME280;33253;42.144;25.884;2023-05-01T00:17:15;100401.75;;;12.59;100.00
47524;BME280;33253;42.144;25.884;2023-05-01T00:19:41;100397.19;;;12.49;100.00
47524;BME280;33253;42.144;25.884;2023-05-01T00:22:06;100397.94;;;12.45;100.00
47524;BME280;33253;42.144;25.884;2023-05-01T00:24:32;100397.38;;;12.57;100.00
47524;BME280;33253;42.144;25.884;2023-05-01T00:26:57;100395.00;;;12.33;100.00
47524;BME280;33253;42.144;25.884;2023-05-01T00:29:23;100393.84;;;11.94;100.00
47524;BME280;33253;42.144;25.884;2023-05-01T00:31:49;100399.81;;;11.91;100.00
47524;BME280;33253;42.144;25.884;2023-05-01T00:34:14;100394.91;;;12.01;100.00
47524;BME280;33253;42.144;25.884;2023-05-01T00:36:40;100399.09;;;11.68;100.00
47524;BME280;33253;42.144;25.884;2023-05-01T00:39:05;100402.66;;;11.19;100.00
47524;BME280;33253;42.144;25.884;2023-05-01T00:41:34;100339.22;;;10.75;100.00
47524;BME280;33253;42.144;25.884;2023-05-01T00:44:00;100389.53;;;11.12;100.00
47524;BME280;33253;42.144;25.884;2023-05-01T00:46:29;100378.19;;;11.35;100.00
47524;BME280;33253;42.144;25.884;2023-05-01T00:48:56;100273.47;;;10.91;100.00
47524;BME280;33253;42.144;25.884;2023-05-01T00:51:23;100396.56;;;11.71;100.00
47524;BME280;33253;42.144;25.884;2023-05-01T00:53:49;100388.13;;;11.48;100.00
47524;BME280;33253;42.144;25.884;2023-05-01T00:56:16;100377.97;;;11.27;100.00
47524;BME280;33253;42.144;25.884;2023-05-01T00:58:43;100386.63;;;11.29;100.00
47524;BME280;33253;42.144;25.884;2023-05-01T01:01:10;100382.63;;;11.39;100.00
47524;BME280;33253;42.144;25.884;2023-05-01T01:03:36;100383.09;;;11.25;100.00
47524;BME280;33253;42.144;25.884;2023-05-01T01:11:39;100404.44;;;11.47;100.00
47524;BME280;33253;42.144;25.884;2023-05-01T01:14:31;100355.28;;;10.66;100.00
47524;BME280;33253;42.144;25.884;2023-05-01T01:17:11;100407.53;;;10.59;100.00
47524;BME280;33253;42.144;25.884;2023-05-01T01:22:42;100412.69;;;11.09;100.00
47524;BME280;33253;42.144;25.884;2023-05-01T01:33:44;100410.19;;;11.38;100.00
47524;BME280;33253;42.144;25.884;2023-05-01T01:36:18;100415.22;;;11.33;100.00
47524;BME280;33253;42.144;25.884;2023-05-01T01:41:49;100433.00;;;11.24;100.00
47524;BME280;33253;42.144;25.884;2023-05-01T01:44:19;100432.78;;;11.44;100.00
47524;BME280;33253;42.144;25.884;2023-05-01T01:46:47;100430.69;;;11.59;100.00
47524;BME280;33253;42.144;25.884;2023-05-01T01:49:19;100429.69;;;11.54;100.00
47524;BME280;33253;42.144;25.884;2023-05-01T01:51:46;100427.34;;;11.62;100.00
47524;BME280;33253;42.144;25.884;2023-05-01T01:54:14;100395.91;;;11.49;100.00
47524;BME280;33253;42.144;25.884;2023-05-01T01:56:42;100418.19;;;11.73;100.00
47524;BME280;33253;42.144;25.884;2023-05-01T01:59:09;100416.59;;;11.77;100.00
47524;BME280;33253;42.144;25.884;2023-05-01T02:01:36;100403.22;;;11.63;100.00
47524;BME280;33253;42.144;25.884;2023-05-01T02:04:04;100410.84;;;11.58;100.00
47524;BME280;33253;42.144;25.884;2023-05-01T02:06:32;100433.47;;;11.65;100.00
47524;BME280;33253;42.144;25.884;2023-05-01T02:09:01;100430.94;;;11.67;100.00
47524;BME280;33253;42.144;25.884;2023-05-01T02:11:29;100434.97;;;11.59;100.00
47524;BME280;33253;42.144;25.884;2023-05-01T02:13:56;100440.66;;;11.47;100.00
47524;BME280;33253;42.144;25.884;2023-05-01T02:16:22;100441.75;;;11.28;100.00
47524;BME280;33253;42.144;25.884;2023-05-01T02:18:50;100442.16;;;11.14;100.00
47524;BME280;33253;42.144;25.884;2023-05-01T02:21:17;100432.56;;;10.86;100.00
47524;BME280;33253;42.144;25.884;2023-05-01T02:23:43;100458.81;;;10.98;100.00
47524;BME280;33253;42.144;25.884;2023-05-01T02:26:12;100455.28;;;10.96;100.00
47524;BME280;33253;42.144;25.884;2023-05-01T02:28:41;100460.31;;;10.92;100.00
47524;BME280;33253;42.144;25.884;2023-05-01T02:31:08;100466.53;;;10.97;100.00
47524;BME280;33253;42.144;25.884;2023-05-01T02:33:33;100463.16;;;10.99;100.00
47524;BME280;33253;42.144;25.884;2023-05-01T02:35:58;100465.84;;;11.03;100.00
47524;BME280;33253;42.144;25.884;2023-05-01T02:38:24;100478.00;;;11.05;100.00
47524;BME280;33253;42.144;25.884;2023-05-01T02:40:52;100465.94;;;11.04;100.00
47524;BME280;33253;42.144;25.884;2023-05-01T02:43:21;100471.91;;;11.03;100.00
47524;BME280;33253;42.144;25.884;2023-05-01T02:45:48;100474.63;;;11.08;100.00
47524;BME280;33253;42.144;25.884;2023-05-01T02:48:17;100480.78;;;11.11;100.00
47524;BME280;33253;42.144;25.884;2023-05-01T02:50:45;100481.72;;;11.13;100.00
47524;BME280;33253;42.144;25.884;2023-05-01T02:53:12;100466.13;;;11.10;100.00
47524;BME280;33253;42.144;25.884;2023-05-01T02:55:38;100473.56;;;11.01;100.00
47524;BME280;33253;42.144;25.884;2023-05-01T02:58:03;100486.28;;;10.96;100.00
47524;BME280;33253;42.144;25.884;2023-05-01T03:00:29;100492.25;;;10.70;100.00
47524;BME280;33253;42.144;25.884;2023-05-01T03:02:54;100500.25;;;10.77;100.00
47524;BME280;33253;42.144;25.884;2023-05-01T03:05:20;100498.50;;;10.76;100.00
47524;BME280;33253;42.144;25.884;2023-05-01T03:07:46;100460.63;;;10.52;100.00
47524;BME280;33253;42.144;25.884;2023-05-01T03:10:12;100483.91;;;10.77;100.00
47524;BME280;33253;42.144;25.884;2023-05-01T03:12:38;100438.50;;;10.59;100.00
47524;BME280;33253;42.144;25.884;2023-05-01T03:15:03;100501.75;;;10.95;100.00
47524;BME280;33253;42.144;25.884;2023-05-01T03:17:30;100494.13;;;10.98;100.00
47524;BME280;33253;42.144;25.884;2023-05-01T03:19:55;100504.78;;;11.07;100.00
47524;BME280;33253;42.144;25.884;2023-05-01T03:22:20;100503.13;;;11.09;100.00
47524;BME280;33253;42.144;25.884;2023-05-01T03:24:46;100463.69;;;10.89;100.00
47524;BME280;33253;42.144;25.884;2023-05-01T03:27:12;100499.78;;;11.12;100.00
47524;BME280;33253;42.144;25.884;2023-05-01T03:29:38;100499.59;;;11.07;100.00
47524;BME280;33253;42.144;25.884;2023-05-01T03:32:04;100485.44;;;10.96;100.00
47524;BME280;33253;42.144;25.884;2023-05-01T03:34:29;100514.38;;;11.11;100.00
47524;BME280;33253;42.144;25.884;2023-05-01T03:36:55;100502.34;;;11.12;100.00
47524;BME280;33253;42.144;25.884;2023-05-01T03:39:21;100464.59;;;10.91;100.00
47524;BME280;33253;42.144;25.884;2023-05-01T03:41:46;100476.69;;;10.92;100.00
47524;BME280;33253;42.144;25.884;2023-05-01T03:44:12;100493.56;;;11.07;100.00
47524;BME280;33253;42.144;25.884;2023-05-01T03:46:37;100520.06;;;11.25;100.00
47524;BME280;33253;42.144;25.884;2023-05-01T03:49:03;100505.31;;;11.23;100.00
47524;BME280;33253;42.144;25.884;2023-05-01T03:51:28;100523.50;;;11.26;100.00
47524;BME280;33253;42.144;25.884;2023-05-01T03:53:54;100518.34;;;11.26;100.00
47524;BME280;33253;42.144;25.884;2023-05-01T03:56:24;100518.84;;;11.15;100.00
47524;BME280;33253;42.144;25.884;2023-05-01T03:58:50;100507.47;;;11.10;100.00
47524;BME280;33253;42.144;25.884;2023-05-01T04:01:16;100510.72;;;11.05;100.00
47524;BME280;33253;42.144;25.884;2023-05-01T04:03:41;100516.44;;;10.96;100.00
47524;BME280;33253;42.144;25.884;2023-05-01T04:06:06;100525.34;;;11.04;100.00
47524;BME280;33253;42.144;25.884;2023-05-01T04:08:32;100527.06;;;11.05;100.00
47524;BME280;33253;42.144;25.884;2023-05-01T04:10:57;100530.28;;;10.98;100.00
47524;BME280;33253;42.144;25.884;2023-05-01T04:13:23;100541.72;;;11.05;100.00
47524;BME280;33253;42.144;25.884;2023-05-01T04:15:48;100539.91;;;11.02;100.00
47524;BME280;33253;42.144;25.884;2023-05-01T04:18:14;100536.91;;;10.91;100.00
47524;BME280;33253;42.144;25.884;2023-05-01T04:20:39;100521.59;;;10.72;100.00
47524;BME280;33253;42.144;25.884;2023-05-01T04:23:04;100535.94;;;10.65;100.00
47524;BME280;33253;42.144;25.884;2023-05-01T04:25:30;100535.09;;;10.64;100.00
47524;BME280;33253;42.144;25.884;2023-05-01T04:27:56;100534.00;;;10.36;100.00
47524;BME280;33253;42.144;25.884;2023-05-01T04:30:21;100541.38;;;10.27;100.00
47524;BME280;33253;42.144;25.884;2023-05-01T04:32:47;100544.34;;;10.36;100.00
47524;BME280;33253;42.144;25.884;2023-05-01T04:35:12;100543.13;;;10.49;100.00
47524;BME280;33253;42.144;25.884;2023-05-01T04:37:38;100547.09;;;10.64;100.00
47524;BME280;33253;42.144;25.884;2023-05-01T04:40:03;100505.47;;;10.55;100.00
47524;BME280;33253;42.144;25.884;2023-05-01T04:42:30;100542.84;;;10.89;100.00
47524;BME280;33253;42.144;25.884;2023-05-01T04:44:55;100543.06;;;10.95;100.00
47524;BME280;33253;42.144;25.884;2023-05-01T04:47:21;100538.84;;;10.97;100.00
47524;BME280;33253;42.144;25.884;2023-05-01T04:49:46;100541.75;;;11.06;100.00
47524;BME280;33253;42.144;25.884;2023-05-01T04:52:12;100553.47;;;11.21;100.00
47524;BME280;33253;42.144;25.884;2023-05-01T04:54:37;100544.09;;;11.23;100.00
47524;BME280;33253;42.144;25.884;2023-05-01T04:57:02;100553.16;;;11.36;100.00
47524;BME280;33253;42.144;25.884;2023-05-01T04:59:28;100559.34;;;11.41;100.00
47524;BME280;33253;42.144;25.884;2023-05-01T05:01:53;100561.16;;;11.43;100.00
47524;BME280;33253;42.144;25.884;2023-05-01T05:04:19;100559.44;;;11.44;100.00
47524;BME280;33253;42.144;25.884;2023-05-01T05:06:44;100556.75;;;11.41;100.00
47524;BME280;33253;42.144;25.884;2023-05-01T05:09:09;100527.84;;;11.27;100.00
47524;BME280;33253;42.144;25.884;2023-05-01T05:11:35;100567.69;;;11.58;100.00
47524;BME280;33253;42.144;25.884;2023-05-01T05:14:00;100584.41;;;11.68;100.00
47524;BME280;33253;42.144;25.884;2023-05-01T05:16:26;100585.56;;;11.77;100.00
47524;BME280;33253;42.144;25.884;2023-05-01T05:18:54;100581.69;;;11.89;100.00
47524;BME280;33253;42.144;25.884;2023-05-01T05:21:20;100590.75;;;12.02;100.00
47524;BME280;33253;42.144;25.884;2023-05-01T05:23:45;100587.66;;;12.13;100.00
47524;BME280;33253;42.144;25.884;2023-05-01T05:26:11;100595.78;;;12.24;100.00
47524;BME280;33253;42.144;25.884;2023-05-01T05:28:36;100556.59;;;12.13;100.00
47524;BME280;33253;42.144;25.884;2023-05-01T05:31:01;100573.50;;;12.29;100.00
47524;BME280;33253;42.144;25.884;2023-05-01T05:33:27;100602.09;;;12.60;100.00
47524;BME280;33253;42.144;25.884;2023-05-01T05:35:53;100577.66;;;12.52;100.00
47524;BME280;33253;42.144;25.884;2023-05-01T05:38:18;100605.31;;;12.82;100.00
47524;BME280;33253;42.144;25.884;2023-05-01T05:40:44;100608.28;;;12.94;100.00
47524;BME280;33253;42.144;25.884;2023-05-01T05:43:09;100601.66;;;13.04;100.00
47524;BME280;33253;42.144;25.884;2023-05-01T05:45:36;100615.00;;;13.18;100.00
47524;BME280;33253;42.144;25.884;2023-05-01T05:48:02;100607.25;;;13.19;100.00
47524;BME280;33253;42.144;25.884;2023-05-01T05:50:27;100606.63;;;13.28;100.00
47524;BME280;33253;42.144;25.884;2023-05-01T05:52:54;100626.34;;;13.52;100.00
47524;BME280;33253;42.144;25.884;2023-05-01T05:55:19;100614.97;;;13.47;100.00
47524;BME280;33253;42.144;25.884;2023-05-01T05:57:45;100631.75;;;13.59;100.00
47524;BME280;33253;42.144;25.884;2023-05-01T06:00:11;100602.97;;;13.50;100.00
47524;BME280;33253;42.144;25.884;2023-05-01T06:02:36;100581.09;;;13.40;100.00
47524;BME280;33253;42.144;25.884;2023-05-01T06:05:02;100643.53;;;13.80;100.00
47524;BME280;33253;42.144;25.884;2023-05-01T06:07:28;100606.19;;;13.73;100.00
47524;BME280;33253;42.144;25.884;2023-05-01T06:09:54;100644.13;;;14.02;100.00
47524;BME280;33253;42.144;25.884;2023-05-01T06:12:19;100644.38;;;14.13;100.00
47524;BME280;33253;42.144;25.884;2023-05-01T06:14:45;100639.63;;;13.96;100.00
47524;BME280;33253;42.144;25.884;2023-05-01T06:17:11;100604.72;;;13.83;100.00
47524;BME280;33253;42.144;25.884;2023-05-01T06:19:36;100650.38;;;14.12;100.00
47524;BME280;33253;42.144;25.884;2023-05-01T06:22:02;100641.91;;;14.19;100.00
47524;BME280;33253;42.144;25.884;2023-05-01T06:24:27;100615.75;;;14.10;100.00
47524;BME280;33253;42.144;25.884;2023-05-01T06:26:53;100651.31;;;14.49;100.00
47524;BME280;33253;42.144;25.884;2023-05-01T06:29:18;100650.66;;;14.59;100.00
47524;BME280;33253;42.144;25.884;2023-05-01T06:31:44;100646.41;;;14.61;100.00
47524;BME280;33253;42.144;25.884;2023-05-01T06:34:11;100651.56;;;14.60;100.00
47524;BME280;33253;42.144;25.884;2023-05-01T06:36:37;100655.78;;;14.54;100.00
47524;BME280;33253;42.144;25.884;2023-05-01T06:39:02;100660.63;;;14.76;100.00
47524;BME280;33253;42.144;25.884;2023-05-01T06:41:28;100666.97;;;14.88;100.00
47524;BME280;33253;42.144;25.884;2023-05-01T06:43:54;100664.81;;;15.09;100.00
47524;BME280;33253;42.144;25.884;2023-05-01T06:46:19;100645.63;;;15.03;100.00
47524;BME280;33253;42.144;25.884;2023-05-01T06:48:45;100670.59;;;15.36;100.00
47524;BME280;33253;42.144;25.884;2023-05-01T06:51:10;100675.31;;;15.56;97.94
47524;BME280;33253;42.144;25.884;2023-05-01T06:53:39;100672.78;;;15.59;97.21
47524;BME280;33253;42.144;25.884;2023-05-01T06:56:06;100676.25;;;15.60;96.91
47524;BME280;33253;42.144;25.884;2023-05-01T06:58:31;100679.06;;;15.69;95.53
47524;BME280;33253;42.144;25.884;2023-05-01T07:00:59;100678.13;;;15.65;95.74
47524;BME280;33253;42.144;25.884;2023-05-01T07:03:24;100687.84;;;15.76;94.30
47524;BME280;33253;42.144;25.884;2023-05-01T07:05:54;100685.41;;;15.83;95.68
47524;BME280;33253;42.144;25.884;2023-05-01T07:08:20;100691.88;;;16.04;93.61
47524;BME280;33253;42.144;25.884;2023-05-01T07:10:46;100653.97;;;15.73;93.94
47524;BME280;33253;42.144;25.884;2023-05-01T07:13:11;100693.53;;;15.99;93.75
47524;BME280;33253;42.144;25.884;2023-05-01T07:15:37;100646.19;;;15.74;91.43
47524;BME280;33253;42.144;25.884;2023-05-01T07:18:03;100694.34;;;15.96;91.86
47524;BME280;33253;42.144;25.884;2023-05-01T07:20:32;100689.09;;;15.95;96.60
47524;BME280;33253;42.144;25.884;2023-05-01T07:22:58;100693.56;;;16.02;99.22
47524;BME280;33253;42.144;25.884;2023-05-01T07:25:24;100694.63;;;16.12;94.70
47524;BME280;33253;42.144;25.884;2023-05-01T07:27:49;100698.25;;;16.20;92.80
47524;BME280;33253;42.144;25.884;2023-05-01T07:30:15;100694.00;;;16.25;94.84
47524;BME280;33253;42.144;25.884;2023-05-01T07:32:42;100694.09;;;16.31;92.91
47524;BME280;33253;42.144;25.884;2023-05-01T07:35:07;100682.03;;;16.37;96.91
47524;BME280;33253;42.144;25.884;2023-05-01T07:37:33;100694.41;;;16.50;95.92
47524;BME280;33253;42.144;25.884;2023-05-01T07:39:58;100702.25;;;16.52;92.12
47524;BME280;33253;42.144;25.884;2023-05-01T07:42:26;100663.91;;;16.46;90.86
47524;BME280;33253;42.144;25.884;2023-05-01T07:44:51;100694.09;;;16.88;89.63
47524;BME280;33253;42.144;25.884;2023-05-01T07:47:16;100700.75;;;17.26;89.61
47524;BME280;33253;42.144;25.884;2023-05-01T07:49:43;100702.72;;;17.42;92.03
47524;BME280;33253;42.144;25.884;2023-05-01T07:52:09;100699.34;;;17.54;90.34
47524;BME280;33253;42.144;25.884;2023-05-01T07:54:35;100664.31;;;17.34;88.76
47524;BME280;33253;42.144;25.884;2023-05-01T07:57:01;100691.50;;;17.51;87.26
47524;BME280;33253;42.144;25.884;2023-05-01T07:59:27;100712.41;;;17.53;87.66
47524;BME280;33253;42.144;25.884;2023-05-01T08:01:53;100704.63;;;17.59;87.18
47524;BME280;33253;42.144;25.884;2023-05-01T08:04:18;100710.00;;;17.73;86.28
47524;BME280;33253;42.144;25.884;2023-05-01T08:06:47;100683.13;;;17.82;82.13
47524;BME280;33253;42.144;25.884;2023-05-01T08:09:12;100708.81;;;18.23;81.45
47524;BME280;33253;42.144;25.884;2023-05-01T08:11:38;100712.50;;;18.47;82.99
47524;BME280;33253;42.144;25.884;2023-05-01T08:14:04;100708.31;;;18.67;77.15
47524;BME280;33253;42.144;25.884;2023-05-01T08:16:29;100711.84;;;18.72;80.14
47524;BME280;33253;42.144;25.884;2023-05-01T08:18:55;100721.47;;;18.78;74.52
47524;BME280;33253;42.144;25.884;2023-05-01T08:21:20;100717.28;;;18.96;72.12
47524;BME280;33253;42.144;25.884;2023-05-01T08:23:45;100717.34;;;19.08;71.74
47524;BME280;33253;42.144;25.884;2023-05-01T08:26:11;100719.16;;;19.15;70.98
47524;BME280;33253;42.144;25.884;2023-05-01T08:28:36;100705.22;;;19.29;72.11
47524;BME280;33253;42.144;25.884;2023-05-01T08:31:02;100702.63;;;19.36;72.82
47524;BME280;33253;42.144;25.884;2023-05-01T08:33:28;100704.44;;;19.50;70.39
47524;BME280;33253;42.144;25.884;2023-05-01T08:35:53;100699.25;;;19.59;68.97
47524;BME280;33253;42.144;25.884;2023-05-01T08:38:19;100654.59;;;19.23;73.09
47524;BME280;33253;42.144;25.884;2023-05-01T08:40:51;100655.53;;;19.43;66.80
47524;BME280;33253;42.144;25.884;2023-05-01T08:43:21;100693.13;;;19.59;70.05
47524;BME280;33253;42.144;25.884;2023-05-01T08:45:47;100701.00;;;19.66;69.29
47524;BME280;33253;42.144;25.884;2023-05-01T08:48:15;100665.22;;;19.62;63.03
47524;BME280;33253;42.144;25.884;2023-05-01T08:50:45;100666.09;;;19.66;63.45
47524;BME280;33253;42.144;25.884;2023-05-01T08:53:12;100692.38;;;19.91;64.74
47524;BME280;33253;42.144;25.884;2023-05-01T08:55:43;100667.84;;;19.75;61.32
47524;BME280;33253;42.144;25.884;2023-05-01T08:58:10;100692.41;;;20.11;67.38
47524;BME280;33253;42.144;25.884;2023-05-01T09:00:38;100676.69;;;20.18;59.68
47524;BME280;33253;42.144;25.884;2023-05-01T09:03:05;100676.69;;;20.18;63.20
47524;BME280;33253;42.144;25.884;2023-05-01T09:05:32;100676.72;;;20.34;57.90
47524;BME280;33253;42.144;25.884;2023-05-01T09:07:58;100688.06;;;20.36;60.07
47524;BME280;33253;42.144;25.884;2023-05-01T09:10:25;100691.56;;;20.44;60.26
47524;BME280;33253;42.144;25.884;2023-05-01T09:12:55;100683.69;;;20.57;57.58
47524;BME280;33253;42.144;25.884;2023-05-01T09:15:41;100624.28;;;20.17;57.31
47524;BME280;33253;42.144;25.884;2023-05-01T09:18:07;100661.81;;;20.42;56.98
47524;BME280;33253;42.144;25.884;2023-05-01T09:20:33;100685.44;;;20.78;61.53
47524;BME280;33253;42.144;25.884;2023-05-01T09:23:01;100687.13;;;20.96;58.57
47524;BME280;33253;42.144;25.884;2023-05-01T09:25:27;100684.50;;;21.05;59.57
47524;BME280;33253;42.144;25.884;2023-05-01T09:27:53;100656.56;;;20.89;60.68
47524;BME280;33253;42.144;25.884;2023-05-01T09:30:30;100674.88;;;21.09;57.77
47524;BME280;33253;42.144;25.884;2023-05-01T09:33:10;100676.63;;;20.96;61.06
47524;BME280;33253;42.144;25.884;2023-05-01T09:35:49;100674.94;;;20.79;60.94
47524;BME280;33253;42.144;25.884;2023-05-01T09:38:25;100681.91;;;20.63;62.02
47524;BME280;33253;42.144;25.884;2023-05-01T09:41:03;100674.09;;;20.46;63.47
47524;BME280;33253;42.144;25.884;2023-05-01T09:43:29;100674.94;;;20.64;61.61
47524;BME280;33253;42.144;25.884;2023-05-01T09:46:02;100671.44;;;20.56;63.51
47524;BME280;33253;42.144;25.884;2023-05-01T09:48:29;100681.94;;;20.52;61.50
47524;BME280;33253;42.144;25.884;2023-05-01T09:50:55;100668.84;;;20.71;63.90
47524;BME280;33253;42.144;25.884;2023-05-01T09:53:35;100676.66;;;20.63;62.15
47524;BME280;33253;42.144;25.884;2023-05-01T09:56:02;100676.69;;;20.59;60.96
47524;BME280;33253;42.144;25.884;2023-05-01T09:58:27;100647.84;;;20.25;61.52
47524;BME280;33253;42.144;25.884;2023-05-01T10:00:53;100685.44;;;20.64;61.06
47524;BME280;33253;42.144;25.884;2023-05-01T10:03:18;100670.53;;;20.97;59.73
47524;BME280;33253;42.144;25.884;2023-05-01T10:05:44;100683.66;;;20.91;61.22
47524;BME280;33253;42.144;25.884;2023-05-01T10:08:09;100691.56;;;20.92;61.13
47524;BME280;33253;42.144;25.884;2023-05-01T10:10:39;100666.06;;;21.21;59.29
47524;BME280;33253;42.144;25.884;2023-05-01T10:13:16;100679.06;;;21.52;57.69
47524;BME280;33253;42.144;25.884;2023-05-01T10:15:43;100634.41;;;21.52;56.75
47524;BME280;33253;42.144;25.884;2023-05-01T10:18:09;100682.31;;;22.00;59.51
47524;BME280;33253;42.144;25.884;2023-05-01T10:20:55;100669.38;;;21.68;57.30
47524;BME280;33253;42.144;25.884;2023-05-01T10:23:20;100681.69;;;21.55;54.54
47524;BME280;33253;42.144;25.884;2023-05-01T10:25:48;100633.59;;;21.40;54.22
47524;BME280;33253;42.144;25.884;2023-05-01T10:28:14;100664.94;;;21.77;55.39
47524;BME280;33253;42.144;25.884;2023-05-01T10:30:40;100676.44;;;21.47;55.95
47524;BME280;33253;42.144;25.884;2023-05-01T10:33:05;100656.44;;;21.23;54.58
47524;BME280;33253;42.144;25.884;2023-05-01T10:35:34;100665.06;;;21.59;54.13
47524;BME280;33253;42.144;25.884;2023-05-01T10:38:07;100677.91;;;22.01;53.02
47524;BME280;33253;42.144;25.884;2023-05-01T10:43:24;100675.78;;;22.57;50.52
47524;BME280;33253;42.144;25.884;2023-05-01T10:45:51;100669.59;;;22.58;53.64
47524;BME280;33253;42.144;25.884;2023-05-01T10:51:10;100681.72;;;22.73;50.23
47524;BME280;33253;42.144;25.884;2023-05-01T10:53:36;100676.66;;;22.56;48.67
47524;BME280;33253;42.144;25.884;2023-05-01T10:56:03;100667.91;;;22.54;49.67
47524;BME280;33253;42.144;25.884;2023-05-01T10:58:53;100673.81;;;22.77;46.75
47524;BME280;33253;42.144;25.884;2023-05-01T11:01:36;100642.25;;;22.76;47.74
47524;BME280;33253;42.144;25.884;2023-05-01T11:06:29;100674.41;;;23.01;48.07
47524;BME280;33253;42.144;25.884;2023-05-01T11:08:55;100663.69;;;23.23;47.63
47524;BME280;33253;42.144;25.884;2023-05-01T11:21:48;100657.66;;;23.08;43.98
47524;BME280;33253;42.144;25.884;2023-05-01T11:24:15;100668.63;;;23.46;48.42
47524;BME280;33253;42.144;25.884;2023-05-01T11:26:43;100651.88;;;23.52;41.64
47524;BME280;33253;42.144;25.884;2023-05-01T11:29:09;100654.84;;;23.27;44.08
47524;BME280;33253;42.144;25.884;2023-05-01T11:31:37;100655.53;;;23.41;44.97
47524;BME280;33253;42.144;25.884;2023-05-01T11:34:03;100663.91;;;23.73;44.42
47524;BME280;33253;42.144;25.884;2023-05-01T11:36:49;100633.28;;;23.64;43.74
47524;BME280;33253;42.144;25.884;2023-05-01T11:39:16;100664.44;;;23.97;42.42
47524;BME280;33253;42.144;25.884;2023-05-01T11:41:42;100660.78;;;24.05;43.34
47524;BME280;33253;42.144;25.884;2023-05-01T11:44:07;100650.91;;;24.18;40.38
47524;BME280;33253;42.144;25.884;2023-05-01T11:46:35;100578.41;;;23.88;44.50
47524;BME280;33253;42.144;25.884;2023-05-01T11:49:01;100669.50;;;24.64;41.68
47524;BME280;33253;42.144;25.884;2023-05-01T11:51:28;100668.00;;;24.49;40.14
47524;BME280;33253;42.144;25.884;2023-05-01T11:54:08;100668.34;;;23.66;39.35
47524;BME280;33253;42.144;25.884;2023-05-01T11:56:35;100640.25;;;23.67;38.62
47524;BME280;33253;42.144;25.884;2023-05-01T11:59:27;100668.53;;;24.15;40.73
47524;BME280;33253;42.144;25.884;2023-05-01T12:01:54;100624.56;;;24.17;41.81
47524;BME280;33253;42.144;25.884;2023-05-01T12:04:26;100654.91;;;24.43;40.37
47524;BME280;33253;42.144;25.884;2023-05-01T12:06:52;100656.28;;;24.65;40.69
47524;BME280;33253;42.144;25.884;2023-05-01T12:09:23;100644.09;;;24.57;40.86
47524;BME280;33253;42.144;25.884;2023-05-01T12:11:52;100615.09;;;24.53;41.45
47524;BME280;33253;42.144;25.884;2023-05-01T12:14:19;100649.16;;;24.70;39.42
47524;BME280;33253;42.144;25.884;2023-05-01T12:16:46;100647.44;;;24.68;37.74
47524;BME280;33253;42.144;25.884;2023-05-01T12:19:13;100645.25;;;24.42;38.19
47524;BME280;33253;42.144;25.884;2023-05-01T12:21:38;100655.13;;;24.30;38.65
47524;BME280;33253;42.144;25.884;2023-05-01T12:24:08;100640.00;;;24.40;36.87
47524;BME280;33253;42.144;25.884;2023-05-01T12:26:34;100644.00;;;24.10;37.39
47524;BME280;33253;42.144;25.884;2023-05-01T12:29:04;100629.31;;;23.95;37.83
47524;BME280;33253;42.144;25.884;2023-05-01T12:31:31;100634.47;;;24.02;37.06
47524;BME280;33253;42.144;25.884;2023-05-01T12:36:27;100642.47;;;24.49;38.55
47524;BME280;33253;42.144;25.884;2023-05-01T12:38:58;100642.59;;;24.42;38.56
47524;BME280;33253;42.144;25.884;2023-05-01T12:41:46;100572.50;;;23.73;37.07
47524;BME280;33253;42.144;25.884;2023-05-01T12:46:58;100633.00;;;23.83;40.87
47524;BME280;33253;42.144;25.884;2023-05-01T12:49:24;100645.69;;;24.15;40.16
47524;BME280;33253;42.144;25.884;2023-05-01T12:51:51;100641.06;;;24.28;37.92
47524;BME280;33253;42.144;25.884;2023-05-01T12:54:39;100632.66;;;24.04;37.43
47524;BME280;33253;42.144;25.884;2023-05-01T12:57:09;100641.09;;;23.70;38.39
47524;BME280;33253;42.144;25.884;2023-05-01T12:59:36;100644.31;;;23.27;37.82
47524;BME280;33253;42.144;25.884;2023-05-01T13:02:02;100635.34;;;23.39;39.19
47524;BME280;33253;42.144;25.884;2023-05-01T13:06:55;100600.22;;;22.67;42.57
47524;BME280;33253;42.144;25.884;2023-05-01T13:09:25;100628.88;;;22.91;41.25
47524;BME280;33253;42.144;25.884;2023-05-01T13:12:01;100638.72;;;22.77;37.95
47524;BME280;33253;42.144;25.884;2023-05-01T13:14:34;100632.47;;;22.87;44.08
47524;BME280;33253;42.144;25.884;2023-05-01T13:17:01;100636.34;;;23.30;40.70
47524;BME280;33253;42.144;25.884;2023-05-01T13:19:27;100640.28;;;23.65;43.07
47524;BME280;33253;42.144;25.884;2023-05-01T13:21:56;100637.75;;;23.59;41.45